sensor_id;sensor_type;location;lat;lon;timestamp;P1;durP1;ratioP1;P2;durP2;ratioP2
16854;SDS011;8543;54.522;18.550;2023-04-24T00:01:38;10.80;;;8.20;;
16854;SDS011;8543;54.522;18.550;2023-04-24T00:04:05;9.60;;;7.60;;
16854;SDS011;8543;54.522;18.550;2023-04-24T00:06:31;9.40;;;7.70;;
16854;SDS011;8543;54.522;18.550;2023-04-24T00:09:02;10.80;;;8.00;;
16854;SDS011;8543;54.522;18.550;2023-04-24T00:11:28;10.00;;;7.90;;
16854;SDS011;8543;54.522;18.550;2023-04-24T00:13:54;11.00;;;7.90;;
16854;SDS011;8543;54.522;18.550;2023-04-24T00:16:19;9.90;;;7.70;;
16854;SDS011;8543;54.522;18.550;2023-04-24T00:18:45;10.00;;;8.00;;
16854;SDS011;8543;54.522;18.550;2023-04-24T00:21:12;10.40;;;7.90;;
16854;SDS011;8543;54.522;18.550;2023-04-24T00:23:38;12.80;;;9.10;;
16854;SDS011;8543;54.522;18.550;2023-04-24T00:26:04;12.40;;;9.70;;
16854;SDS011;8543;54.522;18.550;2023-04-24T00:28:29;13.70;;;10.10;;
16854;SDS011;8543;54.522;18.550;2023-04-24T00:30:54;11.50;;;8.50;;
16854;SDS011;8543;54.522;18.550;2023-04-24T00:33:20;12.90;;;10.00;;
16854;SDS011;8543;54.522;18.550;2023-04-24T00:35:45;13.10;;;9.70;;
16854;SDS011;8543;54.522;18.550;2023-04-24T00:38:11;13.20;;;9.90;;
16854;SDS011;8543;54.522;18.550;2023-04-24T00:40:36;14.40;;;10.20;;
16854;SDS011;8543;54.522;18.550;2023-04-24T00:43:01;13.40;;;10.10;;
16854;SDS011;8543;54.522;18.550;2023-04-24T00:45:27;13.50;;;9.30;;
16854;SDS011;8543;54.522;18.550;2023-04-24T00:47:52;11.90;;;9.20;;
16854;SDS011;8543;54.522;18.550;2023-04-24T00:50:18;11.90;;;8.60;;
16854;SDS011;8543;54.522;18.550;2023-04-24T00:52:44;11.50;;;8.80;;
16854;SDS011;8543;54.522;18.550;2023-04-24T00:55:10;11.80;;;9.00;;
16854;SDS011;8543;54.522;18.550;2023-04-24T00:57:36;13.10;;;9.80;;
16854;SDS011;8543;54.522;18.550;2023-04-24T01:00:02;12.70;;;9.10;;
16854;SDS011;8543;54.522;18.550;2023-04-24T01:02:30;13.10;;;9.50;;
16854;SDS011;8543;54.522;18.550;2023-04-24T01:04:59;12.50;;;9.30;;
16854;SDS011;8543;54.522;18.550;2023-04-24T01:07:25;13.20;;;10.30;;
16854;SDS011;8543;54.522;18.550;2023-04-24T01:09:50;14.70;;;11.10;;
16854;SDS011;8543;54.522;18.550;2023-04-24T01:12:17;16.30;;;11.60;;
16854;SDS011;8543;54.522;18.550;2023-04-24T01:14:43;13.30;;;9.90;;
16854;SDS011;8543;54.522;18.550;2023-04-24T01:17:08;13.90;;;10.30;;
16854;SDS011;8543;54.522;18.550;2023-04-24T01:19:34;14.50;;;10.60;;
16854;SDS011;8543;54.522;18.550;2023-04-24T01:21:59;12.40;;;9.80;;
16854;SDS011;8543;54.522;18.550;2023-04-24T01:24:27;13.70;;;9.90;;
16854;SDS011;8543;54.522;18.550;2023-04-24T01:26:53;14.00;;;10.00;;
16854;SDS011;8543;54.522;18.550;2023-04-24T01:29:19;13.40;;;10.10;;
16854;SDS011;8543;54.522;18.550;2023-04-24T01:31:44;12.00;;;8.80;;
16854;SDS011;8543;54.522;18.550;2023-04-24T01:34:10;14.20;;;10.60;;
16854;SDS011;8543;54.522;18.550;2023-04-24T01:36:35;13.80;;;10.70;;
16854;SDS011;8543;54.522;18.550;2023-04-24T01:39:01;15.60;;;11.30;;
16854;SDS011;8543;54.522;18.550;2023-04-24T01:41:28;17.10;;;11.80;;
16854;SDS011;8543;54.522;18.550;2023-04-24T01:43:53;14.70;;;11.50;;
16854;SDS011;8543;54.522;18.550;2023-04-24T01:46:19;16.20;;;11.20;;
16854;SDS011;8543;54.522;18.550;2023-04-24T01:48:45;14.50;;;10.80;;
16854;SDS011;8543;54.522;18.550;2023-04-24T01:51:10;13.90;;;9.40;;
16854;SDS011;8543;54.522;18.550;2023-04-24T01:53:36;14.20;;;10.00;;
16854;SDS011;8543;54.522;18.550;2023-04-24T01:56:01;12.80;;;8.90;;
16854;SDS011;8543;54.522;18.550;2023-04-24T01:58:27;12.70;;;8.70;;
16854;SDS011;8543;54.522;18.550;2023-04-24T02:00:55;12.70;;;7.90;;
16854;SDS011;8543;54.522;18.550;2023-04-24T02:03:21;12.50;;;8.50;;
16854;SDS011;8543;54.522;18.550;2023-04-24T02:05:47;12.10;;;8.50;;
16854;SDS011;8543;54.522;18.550;2023-04-24T02:08:12;12.20;;;7.80;;
16854;SDS011;8543;54.522;18.550;2023-04-24T02:10:37;13.60;;;8.90;;
16854;SDS011;8543;54.522;18.550;2023-04-24T02:13:03;12.50;;;7.70;;
16854;SDS011;8543;54.522;18.550;2023-04-24T02:15:29;11.00;;;7.50;;
16854;SDS011;8543;54.522;18.550;2023-04-24T02:17:55;10.90;;;7.00;;
16854;SDS011;8543;54.522;18.550;2023-04-24T02:20:20;9.80;;;7.10;;
16854;SDS011;8543;54.522;18.550;2023-04-24T02:22:46;11.40;;;7.50;;
16854;SDS011;8543;54.522;18.550;2023-04-24T02:25:11;10.40;;;7.50;;
16854;SDS011;8543;54.522;18.550;2023-04-24T02:27:36;9.60;;;6.70;;
16854;SDS011;8543;54.522;18.550;2023-04-24T02:30:02;10.00;;;6.70;;
16854;SDS011;8543;54.522;18.550;2023-04-24T02:32:28;8.30;;;6.00;;
16854;SDS011;8543;54.522;18.550;2023-04-24T02:34:53;8.90;;;6.60;;
16854;SDS011;8543;54.522;18.550;2023-04-24T02:37:19;9.20;;;6.20;;
16854;SDS011;8543;54.522;18.550;2023-04-24T02:39:44;8.70;;;6.30;;
16854;SDS011;8543;54.522;18.550;2023-04-24T02:42:09;9.10;;;6.30;;
16854;SDS011;8543;54.522;18.550;2023-04-24T02:44:35;10.40;;;6.80;;
16854;SDS011;8543;54.522;18.550;2023-04-24T02:47:00;8.00;;;5.90;;
16854;SDS011;8543;54.522;18.550;2023-04-24T02:49:26;9.80;;;7.00;;
16854;SDS011;8543;54.522;18.550;2023-04-24T02:51:52;10.30;;;6.80;;
16854;SDS011;8543;54.522;18.550;2023-04-24T02:54:17;8.70;;;6.30;;
16854;SDS011;8543;54.522;18.550;2023-04-24T02:56:42;9.30;;;6.20;;
16854;SDS011;8543;54.522;18.550;2023-04-24T02:59:08;9.90;;;6.60;;
16854;SDS011;8543;54.522;18.550;2023-04-24T03:01:33;10.70;;;7.10;;
16854;SDS011;8543;54.522;18.550;2023-04-24T03:03:59;10.20;;;6.90;;
16854;SDS011;8543;54.522;18.550;2023-04-24T03:06:24;10.00;;;7.00;;
16854;SDS011;8543;54.522;18.550;2023-04-24T03:08:51;10.00;;;7.00;;
16854;SDS011;8543;54.522;18.550;2023-04-24T03:11:17;11.40;;;7.30;;
16854;SDS011;8543;54.522;18.550;2023-04-24T03:13:42;11.50;;;7.70;;
16854;SDS011;8543;54.522;18.550;2023-04-24T03:16:08;9.20;;;6.90;;
16854;SDS011;8543;54.522;18.550;2023-04-24T03:18:33;11.30;;;7.10;;
16854;SDS011;8543;54.522;18.550;2023-04-24T03:20:59;11.90;;;7.50;;
16854;SDS011;8543;54.522;18.550;2023-04-24T03:23:24;12.10;;;7.40;;
16854;SDS011;8543;54.522;18.550;2023-04-24T03:25:49;13.80;;;7.70;;
16854;SDS011;8543;54.522;18.550;2023-04-24T03:28:15;13.00;;;8.10;;
16854;SDS011;8543;54.522;18.550;2023-04-24T03:30:40;13.30;;;7.80;;
16854;SDS011;8543;54.522;18.550;2023-04-24T03:33:06;17.30;;;7.70;;
16854;SDS011;8543;54.522;18.550;2023-04-24T03:35:31;14.50;;;8.20;;
16854;SDS011;8543;54.522;18.550;2023-04-24T03:37:56;10.80;;;7.60;;
16854;SDS011;8543;54.522;18.550;2023-04-24T03:40:22;12.60;;;7.50;;
16854;SDS011;8543;54.522;18.550;2023-04-24T03:42:47;13.20;;;7.30;;
16854;SDS011;8543;54.522;18.550;2023-04-24T03:45:13;11.30;;;7.50;;
16854;SDS011;8543;54.522;18.550;2023-04-24T03:47:38;13.10;;;7.70;;
16854;SDS011;8543;54.522;18.550;2023-04-24T03:50:03;12.50;;;7.80;;
16854;SDS011;8543;54.522;18.550;2023-04-24T03:52:29;15.20;;;8.10;;
16854;SDS011;8543;54.522;18.550;2023-04-24T03:54:55;15.30;;;8.10;;
16854;SDS011;8543;54.522;18.550;2023-04-24T03:57:20;16.80;;;8.50;;
16854;SDS011;8543;54.522;18.550;2023-04-24T03:59:46;15.90;;;8.30;;
16854;SDS011;8543;54.522;18.550;2023-04-24T04:02:11;13.20;;;8.00;;
16854;SDS011;8543;54.522;18.550;2023-04-24T04:04:36;13.70;;;7.90;;
16854;SDS011;8543;54.522;18.550;2023-04-24T04:07:02;14.30;;;7.90;;
16854;SDS011;8543;54.522;18.550;2023-04-24T04:09:28;15.30;;;7.90;;
16854;SDS011;8543;54.522;18.550;2023-04-24T04:11:54;15.10;;;7.70;;
16854;SDS011;8543;54.522;18.550;2023-04-24T04:14:20;18.00;;;9.00;;
16854;SDS011;8543;54.522;18.550;2023-04-24T04:16:46;12.50;;;7.90;;
16854;SDS011;8543;54.522;18.550;2023-04-24T04:19:11;12.60;;;7.80;;
16854;SDS011;8543;54.522;18.550;2023-04-24T04:21:37;16.80;;;8.70;;
16854;SDS011;8543;54.522;18.550;2023-04-24T04:24:02;14.70;;;8.50;;
16854;SDS011;8543;54.522;18.550;2023-04-24T04:26:27;14.00;;;7.60;;
16854;SDS011;8543;54.522;18.550;2023-04-24T04:28:53;12.30;;;7.30;;
16854;SDS011;8543;54.522;18.550;2023-04-24T04:31:21;15.00;;;7.40;;
16854;SDS011;8543;54.522;18.550;2023-04-24T04:33:48;13.70;;;7.20;;
16854;SDS011;8543;54.522;18.550;2023-04-24T04:36:13;11.50;;;7.30;;
16854;SDS011;8543;54.522;18.550;2023-04-24T04:38:39;14.10;;;8.10;;
16854;SDS011;8543;54.522;18.550;2023-04-24T04:41:05;14.00;;;7.80;;
16854;SDS011;8543;54.522;18.550;2023-04-24T04:43:32;14.00;;;9.00;;
16854;SDS011;8543;54.522;18.550;2023-04-24T04:45:57;13.30;;;7.80;;
16854;SDS011;8543;54.522;18.550;2023-04-24T04:48:23;17.40;;;8.90;;
16854;SDS011;8543;54.522;18.550;2023-04-24T04:50:48;16.70;;;9.40;;
16854;SDS011;8543;54.522;18.550;2023-04-24T04:53:14;15.10;;;9.40;;
16854;SDS011;8543;54.522;18.550;2023-04-24T04:55:40;23.10;;;9.70;;
16854;SDS011;8543;54.522;18.550;2023-04-24T04:58:05;19.60;;;9.70;;
16854;SDS011;8543;54.522;18.550;2023-04-24T05:00:31;20.90;;;10.40;;
16854;SDS011;8543;54.522;18.550;2023-04-24T05:03:00;22.60;;;10.30;;
16854;SDS011;8543;54.522;18.550;2023-04-24T05:05:26;20.70;;;10.70;;
16854;SDS011;8543;54.522;18.550;2023-04-24T05:07:52;20.10;;;10.40;;
16854;SDS011;8543;54.522;18.550;2023-04-24T05:10:17;20.70;;;10.50;;
16854;SDS011;8543;54.522;18.550;2023-04-24T05:12:42;22.30;;;10.20;;
16854;SDS011;8543;54.522;18.550;2023-04-24T05:15:08;19.50;;;10.40;;
16854;SDS011;8543;54.522;18.550;2023-04-24T05:17:33;22.90;;;10.80;;
16854;SDS011;8543;54.522;18.550;2023-04-24T05:19:59;20.50;;;10.10;;
16854;SDS011;8543;54.522;18.550;2023-04-24T05:22:25;18.80;;;9.50;;
16854;SDS011;8543;54.522;18.550;2023-04-24T05:24:51;18.50;;;9.10;;
16854;SDS011;8543;54.522;18.550;2023-04-24T05:27:16;23.60;;;9.70;;
16854;SDS011;8543;54.522;18.550;2023-04-24T05:29:41;18.70;;;9.50;;
16854;SDS011;8543;54.522;18.550;2023-04-24T05:32:07;22.10;;;10.90;;
16854;SDS011;8543;54.522;18.550;2023-04-24T05:34:32;19.50;;;9.40;;
16854;SDS011;8543;54.522;18.550;2023-04-24T05:36:58;21.90;;;10.10;;
16854;SDS011;8543;54.522;18.550;2023-04-24T05:39:23;18.40;;;9.00;;
16854;SDS011;8543;54.522;18.550;2023-04-24T05:41:50;18.70;;;10.10;;
16854;SDS011;8543;54.522;18.550;2023-04-24T05:44:16;19.70;;;10.80;;
16854;SDS011;8543;54.522;18.550;2023-04-24T05:46:41;19.20;;;10.10;;
16854;SDS011;8543;54.522;18.550;2023-04-24T05:49:06;18.70;;;9.20;;
16854;SDS011;8543;54.522;18.550;2023-04-24T05:51:32;22.40;;;11.20;;
16854;SDS011;8543;54.522;18.550;2023-04-24T05:53:57;16.40;;;8.60;;
16854;SDS011;8543;54.522;18.550;2023-04-24T05:56:23;17.50;;;8.70;;
16854;SDS011;8543;54.522;18.550;2023-04-24T05:58:48;17.30;;;9.40;;
16854;SDS011;8543;54.522;18.550;2023-04-24T06:01:13;18.60;;;10.40;;
16854;SDS011;8543;54.522;18.550;2023-04-24T06:03:40;17.20;;;9.30;;
16854;SDS011;8543;54.522;18.550;2023-04-24T06:06:06;12.90;;;7.60;;
16854;SDS011;8543;54.522;18.550;2023-04-24T06:08:32;13.40;;;8.20;;
16854;SDS011;8543;54.522;18.550;2023-04-24T06:10:58;18.10;;;9.60;;
16854;SDS011;8543;54.522;18.550;2023-04-24T06:13:23;14.90;;;8.60;;
16854;SDS011;8543;54.522;18.550;2023-04-24T06:15:49;12.70;;;7.70;;
16854;SDS011;8543;54.522;18.550;2023-04-24T06:18:15;13.40;;;8.00;;
16854;SDS011;8543;54.522;18.550;2023-04-24T06:20:40;15.40;;;8.70;;
16854;SDS011;8543;54.522;18.550;2023-04-24T06:23:06;12.40;;;8.20;;
16854;SDS011;8543;54.522;18.550;2023-04-24T06:25:31;13.20;;;7.60;;
16854;SDS011;8543;54.522;18.550;2023-04-24T06:27:57;11.30;;;7.20;;
16854;SDS011;8543;54.522;18.550;2023-04-24T06:30:22;14.70;;;8.20;;
16854;SDS011;8543;54.522;18.550;2023-04-24T06:32:48;14.60;;;8.00;;
16854;SDS011;8543;54.522;18.550;2023-04-24T06:35:14;11.10;;;7.20;;
16854;SDS011;8543;54.522;18.550;2023-04-24T06:37:40;13.00;;;7.20;;
16854;SDS011;8543;54.522;18.550;2023-04-24T06:40:07;14.50;;;7.20;;
16854;SDS011;8543;54.522;18.550;2023-04-24T06:42:32;13.90;;;7.60;;
16854;SDS011;8543;54.522;18.550;2023-04-24T06:44:58;13.70;;;6.70;;
16854;SDS011;8543;54.522;18.550;2023-04-24T06:47:24;12.90;;;6.80;;
16854;SDS011;8543;54.522;18.550;2023-04-24T06:49:49;13.30;;;7.50;;
16854;SDS011;8543;54.522;18.550;2023-04-24T06:52:17;11.30;;;7.20;;
16854;SDS011;8543;54.522;18.550;2023-04-24T06:54:43;9.90;;;6.60;;
16854;SDS011;8543;54.522;18.550;2023-04-24T06:57:08;9.90;;;6.20;;
16854;SDS011;8543;54.522;18.550;2023-04-24T06:59:34;8.70;;;4.80;;
16854;SDS011;8543;54.522;18.550;2023-04-24T07:01:59;8.00;;;5.30;;
16854;SDS011;8543;54.522;18.550;2023-04-24T07:04:25;8.70;;;4.70;;
16854;SDS011;8543;54.522;18.550;2023-04-24T07:06:50;9.40;;;5.50;;
16854;SDS011;8543;54.522;18.550;2023-04-24T07:09:16;8.90;;;5.30;;
16854;SDS011;8543;54.522;18.550;2023-04-24T07:11:43;7.50;;;5.50;;
16854;SDS011;8543;54.522;18.550;2023-04-24T07:14:09;8.90;;;5.90;;
16854;SDS011;8543;54.522;18.550;2023-04-24T07:16:35;8.80;;;5.60;;
16854;SDS011;8543;54.522;18.550;2023-04-24T07:19:00;11.20;;;6.60;;
16854;SDS011;8543;54.522;18.550;2023-04-24T07:21:26;10.70;;;6.30;;
16854;SDS011;8543;54.522;18.550;2023-04-24T07:23:52;12.10;;;7.20;;
16854;SDS011;8543;54.522;18.550;2023-04-24T07:26:17;8.30;;;5.60;;
16854;SDS011;8543;54.522;18.550;2023-04-24T07:28:43;9.90;;;5.60;;
16854;SDS011;8543;54.522;18.550;2023-04-24T07:31:08;7.10;;;4.30;;
16854;SDS011;8543;54.522;18.550;2023-04-24T07:33:35;6.90;;;4.70;;
16854;SDS011;8543;54.522;18.550;2023-04-24T07:36:01;11.00;;;6.10;;
16854;SDS011;8543;54.522;18.550;2023-04-24T07:38:28;10.10;;;6.40;;
16854;SDS011;8543;54.522;18.550;2023-04-24T07:40:54;7.30;;;4.30;;
16854;SDS011;8543;54.522;18.550;2023-04-24T07:43:20;6.50;;;4.40;;
16854;SDS011;8543;54.522;18.550;2023-04-24T07:45:46;7.30;;;4.40;;
16854;SDS011;8543;54.522;18.550;2023-04-24T07:48:12;7.90;;;5.20;;
16854;SDS011;8543;54.522;18.550;2023-04-24T07:50:41;6.90;;;4.50;;
16854;SDS011;8543;54.522;18.550;2023-04-24T07:53:07;8.20;;;5.00;;
16854;SDS011;8543;54.522;18.550;2023-04-24T07:55:32;6.60;;;4.90;;
16854;SDS011;8543;54.522;18.550;2023-04-24T07:57:58;5.90;;;4.40;;
16854;SDS011;8543;54.522;18.550;2023-04-24T08:00:23;7.60;;;4.50;;
16854;SDS011;8543;54.522;18.550;2023-04-24T08:02:48;7.80;;;5.90;;
16854;SDS011;8543;54.522;18.550;2023-04-24T08:05:14;8.00;;;5.60;;
16854;SDS011;8543;54.522;18.550;2023-04-24T08:07:39;6.70;;;4.80;;
16854;SDS011;8543;54.522;18.550;2023-04-24T08:10:07;5.70;;;4.40;;
16854;SDS011;8543;54.522;18.550;2023-04-24T08:12:34;8.90;;;4.70;;
16854;SDS011;8543;54.522;18.550;2023-04-24T08:15:00;5.30;;;3.30;;
16854;SDS011;8543;54.522;18.550;2023-04-24T08:17:25;7.00;;;4.10;;
16854;SDS011;8543;54.522;18.550;2023-04-24T08:19:51;4.10;;;3.10;;
16854;SDS011;8543;54.522;18.550;2023-04-24T08:22:18;5.30;;;3.70;;
16854;SDS011;8543;54.522;18.550;2023-04-24T08:24:43;5.50;;;3.80;;
16854;SDS011;8543;54.522;18.550;2023-04-24T08:27:09;5.60;;;3.70;;
16854;SDS011;8543;54.522;18.550;2023-04-24T08:29:35;6.70;;;4.30;;
16854;SDS011;8543;54.522;18.550;2023-04-24T08:32:01;7.70;;;4.60;;
16854;SDS011;8543;54.522;18.550;2023-04-24T08:34:27;5.50;;;4.60;;
16854;SDS011;8543;54.522;18.550;2023-04-24T08:36:52;6.30;;;4.70;;
16854;SDS011;8543;54.522;18.550;2023-04-24T08:39:18;7.00;;;4.30;;
16854;SDS011;8543;54.522;18.550;2023-04-24T08:41:43;7.20;;;4.30;;
16854;SDS011;8543;54.522;18.550;2023-04-24T08:44:10;5.40;;;3.90;;
16854;SDS011;8543;54.522;18.550;2023-04-24T08:46:37;5.40;;;4.30;;
16854;SDS011;8543;54.522;18.550;2023-04-24T08:49:03;6.40;;;3.70;;
16854;SDS011;8543;54.522;18.550;2023-04-24T08:51:29;5.60;;;4.20;;
16854;SDS011;8543;54.522;18.550;2023-04-24T08:53:55;5.70;;;3.60;;
16854;SDS011;8543;54.522;18.550;2023-04-24T08:56:21;4.50;;;3.50;;
16854;SDS011;8543;54.522;18.550;2023-04-24T08:58:48;4.00;;;3.00;;
16854;SDS011;8543;54.522;18.550;2023-04-24T09:01:16;6.20;;;4.10;;
16854;SDS011;8543;54.522;18.550;2023-04-24T09:03:43;5.60;;;4.20;;
16854;SDS011;8543;54.522;18.550;2023-04-24T09:06:09;7.80;;;4.70;;
16854;SDS011;8543;54.522;18.550;2023-04-24T09:08:36;7.30;;;5.00;;
16854;SDS011;8543;54.522;18.550;2023-04-24T09:11:01;6.60;;;5.20;;
16854;SDS011;8543;54.522;18.550;2023-04-24T09:13:28;6.80;;;4.40;;
16854;SDS011;8543;54.522;18.550;2023-04-24T09:15:53;6.10;;;4.70;;
16854;SDS011;8543;54.522;18.550;2023-04-24T09:18:19;4.20;;;3.40;;
16854;SDS011;8543;54.522;18.550;2023-04-24T09:21:19;4.50;;;3.30;;
16854;SDS011;8543;54.522;18.550;2023-04-24T09:23:37;4.80;;;3.50;;
16854;SDS011;8543;54.522;18.550;2023-04-24T09:26:03;4.80;;;3.70;;
16854;SDS011;8543;54.522;18.550;2023-04-24T09:28:32;6.40;;;3.60;;
16854;SDS011;8543;54.522;18.550;2023-04-24T09:31:05;5.30;;;3.80;;
16854;SDS011;8543;54.522;18.550;2023-04-24T09:33:36;4.70;;;3.40;;
16854;SDS011;8543;54.522;18.550;2023-04-24T09:36:02;4.40;;;3.40;;
16854;SDS011;8543;54.522;18.550;2023-04-24T09:38:32;6.30;;;4.40;;
16854;SDS011;8543;54.522;18.550;2023-04-24T09:40:59;10.50;;;4.90;;
16854;SDS011;8543;54.522;18.550;2023-04-24T09:43:27;6.40;;;4.20;;
16854;SDS011;8543;54.522;18.550;2023-04-24T09:45:54;7.00;;;4.60;;
16854;SDS011;8543;54.522;18.550;2023-04-24T09:48:29;6.30;;;4.30;;
16854;SDS011;8543;54.522;18.550;2023-04-24T09:50:56;8.90;;;5.20;;
16854;SDS011;8543;54.522;18.550;2023-04-24T09:53:24;7.80;;;5.30;;
16854;SDS011;8543;54.522;18.550;2023-04-24T09:55:51;8.10;;;5.20;;
16854;SDS011;8543;54.522;18.550;2023-04-24T09:58:18;8.60;;;5.30;;
16854;SDS011;8543;54.522;18.550;2023-04-24T10:00:44;8.60;;;5.00;;
16854;SDS011;8543;54.522;18.550;2023-04-24T10:03:11;10.00;;;5.70;;
16854;SDS011;8543;54.522;18.550;2023-04-24T10:05:37;9.10;;;5.60;;
16854;SDS011;8543;54.522;18.550;2023-04-24T10:10:30;8.00;;;5.30;;
16854;SDS011;8543;54.522;18.550;2023-04-24T10:12:56;9.40;;;6.00;;
16854;SDS011;8543;54.522;18.550;2023-04-24T10:15:22;10.40;;;6.10;;
16854;SDS011;8543;54.522;18.550;2023-04-24T10:17:48;11.40;;;6.50;;
16854;SDS011;8543;54.522;18.550;2023-04-24T10:20:24;13.00;;;7.90;;
16854;SDS011;8543;54.522;18.550;2023-04-24T10:22:51;13.40;;;7.90;;
16854;SDS011;8543;54.522;18.550;2023-04-24T10:25:22;13.40;;;8.80;;
16854;SDS011;8543;54.522;18.550;2023-04-24T10:27:50;13.90;;;9.60;;
16854;SDS011;8543;54.522;18.550;2023-04-24T10:30:17;11.20;;;8.50;;
16854;SDS011;8543;54.522;18.550;2023-04-24T10:32:44;13.10;;;8.30;;
16854;SDS011;8543;54.522;18.550;2023-04-24T10:35:10;11.90;;;8.40;;
16854;SDS011;8543;54.522;18.550;2023-04-24T10:37:39;14.20;;;8.90;;
16854;SDS011;8543;54.522;18.550;2023-04-24T10:40:06;12.70;;;9.60;;
16854;SDS011;8543;54.522;18.550;2023-04-24T10:42:33;12.40;;;9.80;;
16854;SDS011;8543;54.522;18.550;2023-04-24T10:44:58;13.00;;;8.70;;
16854;SDS011;8543;54.522;18.550;2023-04-24T10:47:27;14.30;;;10.50;;
16854;SDS011;8543;54.522;18.550;2023-04-24T10:49:52;15.60;;;11.40;;
16854;SDS011;8543;54.522;18.550;2023-04-24T10:52:17;16.10;;;11.30;;
16854;SDS011;8543;54.522;18.550;2023-04-24T10:54:44;13.80;;;10.20;;
16854;SDS011;8543;54.522;18.550;2023-04-24T10:59:48;17.60;;;14.60;;
16854;SDS011;8543;54.522;18.550;2023-04-24T11:02:15;13.00;;;9.80;;
16854;SDS011;8543;54.522;18.550;2023-04-24T11:04:41;17.80;;;14.30;;
16854;SDS011;8543;54.522;18.550;2023-04-24T11:07:10;19.50;;;17.30;;
16854;SDS011;8543;54.522;18.550;2023-04-24T11:09:36;18.80;;;15.50;;
16854;SDS011;8543;54.522;18.550;2023-04-24T11:12:06;10.30;;;8.10;;
16854;SDS011;8543;54.522;18.550;2023-04-24T11:17:32;5.50;;;4.50;;
16854;SDS011;8543;54.522;18.550;2023-04-24T11:20:09;11.20;;;9.10;;
16854;SDS011;8543;54.522;18.550;2023-04-24T11:22:36;15.20;;;11.70;;
16854;SDS011;8543;54.522;18.550;2023-04-24T11:25:04;19.50;;;15.00;;
16854;SDS011;8543;54.522;18.550;2023-04-24T11:27:31;17.30;;;14.40;;
16854;SDS011;8543;54.522;18.550;2023-04-24T11:30:07;15.90;;;13.00;;
16854;SDS011;8543;54.522;18.550;2023-04-24T11:35:03;18.30;;;14.10;;
16854;SDS011;8543;54.522;18.550;2023-04-24T11:37:34;18.70;;;13.30;;
16854;SDS011;8543;54.522;18.550;2023-04-24T11:40:09;16.40;;;14.20;;
16854;SDS011;8543;54.522;18.550;2023-04-24T11:42:39;18.70;;;12.60;;
16854;SDS011;8543;54.522;18.550;2023-04-24T11:45:08;16.20;;;13.20;;
16854;SDS011;8543;54.522;18.550;2023-04-24T11:47:35;16.40;;;12.00;;
16854;SDS011;8543;54.522;18.550;2023-04-24T11:50:01;16.60;;;12.70;;
16854;SDS011;8543;54.522;18.550;2023-04-24T11:52:27;14.20;;;12.20;;
16854;SDS011;8543;54.522;18.550;2023-04-24T11:54:53;16.10;;;12.50;;
16854;SDS011;8543;54.522;18.550;2023-04-24T11:57:20;13.40;;;11.50;;
16854;SDS011;8543;54.522;18.550;2023-04-24T11:59:47;13.20;;;10.60;;
16854;SDS011;8543;54.522;18.550;2023-04-24T12:02:33;12.10;;;9.70;;
16854;SDS011;8543;54.522;18.550;2023-04-24T12:04:58;13.70;;;11.40;;
16854;SDS011;8543;54.522;18.550;2023-04-24T12:07:24;13.90;;;11.00;;
16854;SDS011;8543;54.522;18.550;2023-04-24T12:09:55;14.30;;;11.40;;
16854;SDS011;8543;54.522;18.550;2023-04-24T12:12:23;17.00;;;12.70;;
16854;SDS011;8543;54.522;18.550;2023-04-24T12:14:54;14.40;;;12.20;;
16854;SDS011;8543;54.522;18.550;2023-04-24T12:17:25;17.20;;;13.00;;
16854;SDS011;8543;54.522;18.550;2023-04-24T12:19:52;15.40;;;12.50;;
16854;SDS011;8543;54.522;18.550;2023-04-24T12:22:18;15.70;;;13.50;;
16854;SDS011;8543;54.522;18.550;2023-04-24T12:25:00;19.40;;;13.80;;
16854;SDS011;8543;54.522;18.550;2023-04-24T12:27:33;19.40;;;14.40;;
16854;SDS011;8543;54.522;18.550;2023-04-24T12:29:59;18.00;;;14.10;;
16854;SDS011;8543;54.522;18.550;2023-04-24T12:32:25;17.20;;;15.40;;
16854;SDS011;8543;54.522;18.550;2023-04-24T12:34:52;16.70;;;13.60;;
16854;SDS011;8543;54.522;18.550;2023-04-24T12:37:17;16.10;;;13.60;;
16854;SDS011;8543;54.522;18.550;2023-04-24T12:39:59;12.20;;;9.30;;
16854;SDS011;8543;54.522;18.550;2023-04-24T12:42:26;10.40;;;8.00;;
16854;SDS011;8543;54.522;18.550;2023-04-24T12:44:55;8.70;;;7.60;;
16854;SDS011;8543;54.522;18.550;2023-04-24T12:47:23;7.90;;;6.50;;
16854;SDS011;8543;54.522;18.550;2023-04-24T12:49:49;7.00;;;5.70;;
16854;SDS011;8543;54.522;18.550;2023-04-24T12:52:17;8.30;;;6.10;;
16854;SDS011;8543;54.522;18.550;2023-04-24T12:54:45;8.10;;;5.80;;
16854;SDS011;8543;54.522;18.550;2023-04-24T12:57:11;6.50;;;5.20;;
16854;SDS011;8543;54.522;18.550;2023-04-24T12:59:36;7.70;;;5.00;;
16854;SDS011;8543;54.522;18.550;2023-04-24T13:02:02;7.50;;;5.00;;
16854;SDS011;8543;54.522;18.550;2023-04-24T13:04:27;5.90;;;4.50;;
16854;SDS011;8543;54.522;18.550;2023-04-24T13:06:53;6.90;;;4.50;;
16854;SDS011;8543;54.522;18.550;2023-04-24T13:09:18;7.50;;;4.60;;
16854;SDS011;8543;54.522;18.550;2023-04-24T13:11:44;7.00;;;4.50;;
16854;SDS011;8543;54.522;18.550;2023-04-24T13:14:09;5.00;;;4.00;;
16854;SDS011;8543;54.522;18.550;2023-04-24T13:16:35;6.00;;;4.80;;
16854;SDS011;8543;54.522;18.550;2023-04-24T13:19:00;6.60;;;4.00;;
16854;SDS011;8543;54.522;18.550;2023-04-24T13:21:26;6.10;;;4.20;;
16854;SDS011;8543;54.522;18.550;2023-04-24T13:23:51;5.80;;;4.20;;
16854;SDS011;8543;54.522;18.550;2023-04-24T13:26:16;7.10;;;4.60;;
16854;SDS011;8543;54.522;18.550;2023-04-24T13:28:42;5.50;;;4.20;;
16854;SDS011;8543;54.522;18.550;2023-04-24T13:31:07;5.20;;;4.00;;
16854;SDS011;8543;54.522;18.550;2023-04-24T13:33:33;7.40;;;4.40;;
16854;SDS011;8543;54.522;18.550;2023-04-24T13:35:58;7.10;;;4.20;;
16854;SDS011;8543;54.522;18.550;2023-04-24T13:38:24;6.60;;;4.80;;
16854;SDS011;8543;54.522;18.550;2023-04-24T13:40:49;6.30;;;4.40;;
16854;SDS011;8543;54.522;18.550;2023-04-24T13:43:17;5.60;;;4.20;;
16854;SDS011;8543;54.522;18.550;2023-04-24T13:45:43;5.40;;;4.20;;
16854;SDS011;8543;54.522;18.550;2023-04-24T13:48:08;6.00;;;3.80;;
16854;SDS011;8543;54.522;18.550;2023-04-24T13:50:34;5.80;;;4.00;;
16854;SDS011;8543;54.522;18.550;2023-04-24T13:53:00;6.80;;;4.50;;
16854;SDS011;8543;54.522;18.550;2023-04-24T13:55:26;6.70;;;4.30;;
16854;SDS011;8543;54.522;18.550;2023-04-24T13:57:51;5.70;;;4.10;;
16854;SDS011;8543;54.522;18.550;2023-04-24T14:00:20;8.30;;;4.60;;
16854;SDS011;8543;54.522;18.550;2023-04-24T14:02:46;6.80;;;4.00;;
16854;SDS011;8543;54.522;18.550;2023-04-24T14:05:12;7.30;;;4.30;;
16854;SDS011;8543;54.522;18.550;2023-04-24T14:07:40;5.60;;;4.40;;
16854;SDS011;8543;54.522;18.550;2023-04-24T14:10:05;4.90;;;3.80;;
16854;SDS011;8543;54.522;18.550;2023-04-24T14:12:31;5.80;;;4.10;;
16854;SDS011;8543;54.522;18.550;2023-04-24T14:14:57;6.20;;;3.90;;
16854;SDS011;8543;54.522;18.550;2023-04-24T14:17:22;7.30;;;4.40;;
16854;SDS011;8543;54.522;18.550;2023-04-24T14:19:48;5.30;;;4.00;;
16854;SDS011;8543;54.522;18.550;2023-04-24T14:22:13;5.80;;;4.20;;
16854;SDS011;8543;54.522;18.550;2023-04-24T14:24:39;6.60;;;4.50;;
16854;SDS011;8543;54.522;18.550;2023-04-24T14:27:04;6.70;;;4.30;;
16854;SDS011;8543;54.522;18.550;2023-04-24T14:29:30;5.70;;;4.20;;
16854;SDS011;8543;54.522;18.550;2023-04-24T14:31:55;6.50;;;4.40;;
16854;SDS011;8543;54.522;18.550;2023-04-24T14:34:20;5.00;;;4.00;;
16854;SDS011;8543;54.522;18.550;2023-04-24T14:36:46;6.30;;;4.20;;
16854;SDS011;8543;54.522;18.550;2023-04-24T14:39:11;5.80;;;4.20;;
16854;SDS011;8543;54.522;18.550;2023-04-24T14:41:37;6.20;;;4.30;;
16854;SDS011;8543;54.522;18.550;2023-04-24T14:44:04;6.80;;;4.50;;